Weather at Bakhta Heliport

Public forecast

Using degrees Celsius for public forecast. Weather courtesy of forecast.io.

Closest aviation weather report (METAR) to Bakhta Heliport

Closest report is Nizhnevartovsk Airport, 367.1 nm (679.8 km) W. Retrieved 2021/06/19 22:00 UTC (14 minutes ago):

USNN 192200Z VRB01MPS CAVOK 06/05 Q1001 R21/0///65 NOSIG RMK QFE746

Closest aviation forecast (TAF) to Bakhta Heliport

Closest forecast is Nizhnevartovsk Airport, 367.1 nm (679.8 km) W. Retrieved 2021/06/19 21:21 UTC (53 minutes ago):

TAF USNN 191951Z 1921/2021 22003MPS 2000 BR FEW004 SCT020 TEMPO 1921/1924 VRB01MPS 0500 FG VV002 BECMG 2001/2003 18003G09MPS 9999 NSW BECMG 2005/2006 FEW007 BKN016CB